sensor_id;sensor_type;location;lat;lon;timestamp;P1;durP1;ratioP1;P2;durP2;ratioP2
56481;SDS011;42384;45.186;19.958;2024-01-30T00:04:40;22.27;;;13.68;;
56481;SDS011;42384;45.186;19.958;2024-01-30T00:07:06;25.98;;;13.35;;
56481;SDS011;42384;45.186;19.958;2024-01-30T00:09:33;22.25;;;13.98;;
56481;SDS011;42384;45.186;19.958;2024-01-30T00:11:59;26.80;;;13.43;;
56481;SDS011;42384;45.186;19.958;2024-01-30T00:14:25;24.60;;;13.25;;
56481;SDS011;42384;45.186;19.958;2024-01-30T00:16:51;28.65;;;15.27;;
56481;SDS011;42384;45.186;19.958;2024-01-30T00:19:18;24.75;;;14.23;;
56481;SDS011;42384;45.186;19.958;2024-01-30T00:21:44;35.80;;;16.38;;
56481;SDS011;42384;45.186;19.958;2024-01-30T00:24:10;27.65;;;14.93;;
56481;SDS011;42384;45.186;19.958;2024-01-30T00:26:36;25.98;;;14.95;;
56481;SDS011;42384;45.186;19.958;2024-01-30T00:29:02;28.58;;;15.13;;
56481;SDS011;42384;45.186;19.958;2024-01-30T00:31:28;28.15;;;16.27;;
56481;SDS011;42384;45.186;19.958;2024-01-30T00:33:55;28.65;;;15.48;;
56481;SDS011;42384;45.186;19.958;2024-01-30T00:36:21;26.60;;;15.57;;
56481;SDS011;42384;45.186;19.958;2024-01-30T00:38:47;32.08;;;16.17;;
56481;SDS011;42384;45.186;19.958;2024-01-30T00:41:13;37.67;;;17.38;;
56481;SDS011;42384;45.186;19.958;2024-01-30T00:43:40;29.83;;;17.17;;
56481;SDS011;42384;45.186;19.958;2024-01-30T00:46:06;31.65;;;17.05;;
56481;SDS011;42384;45.186;19.958;2024-01-30T00:48:32;31.75;;;17.08;;
56481;SDS011;42384;45.186;19.958;2024-01-30T00:50:58;35.08;;;17.92;;
56481;SDS011;42384;45.186;19.958;2024-01-30T00:53:24;33.35;;;20.75;;
56481;SDS011;42384;45.186;19.958;2024-01-30T00:55:50;29.15;;;18.55;;
56481;SDS011;42384;45.186;19.958;2024-01-30T00:58:16;30.80;;;19.33;;
56481;SDS011;42384;45.186;19.958;2024-01-30T01:00:44;38.30;;;20.60;;
56481;SDS011;42384;45.186;19.958;2024-01-30T01:03:10;32.42;;;19.95;;
56481;SDS011;42384;45.186;19.958;2024-01-30T01:05:37;32.03;;;19.15;;
56481;SDS011;42384;45.186;19.958;2024-01-30T01:08:04;31.10;;;18.80;;
56481;SDS011;42384;45.186;19.958;2024-01-30T01:10:30;30.75;;;18.23;;
56481;SDS011;42384;45.186;19.958;2024-01-30T01:12:56;33.70;;;18.73;;
56481;SDS011;42384;45.186;19.958;2024-01-30T01:15:22;33.85;;;18.77;;
56481;SDS011;42384;45.186;19.958;2024-01-30T01:17:48;29.58;;;17.33;;
56481;SDS011;42384;45.186;19.958;2024-01-30T01:20:15;32.78;;;19.40;;
56481;SDS011;42384;45.186;19.958;2024-01-30T01:22:41;30.92;;;18.80;;
56481;SDS011;42384;45.186;19.958;2024-01-30T01:25:08;35.95;;;18.65;;
56481;SDS011;42384;45.186;19.958;2024-01-30T01:27:35;34.75;;;19.92;;
56481;SDS011;42384;45.186;19.958;2024-01-30T01:30:07;28.63;;;18.15;;
56481;SDS011;42384;45.186;19.958;2024-01-30T01:32:34;32.75;;;18.63;;
56481;SDS011;42384;45.186;19.958;2024-01-30T01:35:01;32.88;;;19.70;;
56481;SDS011;42384;45.186;19.958;2024-01-30T01:37:29;35.70;;;20.70;;
56481;SDS011;42384;45.186;19.958;2024-01-30T01:39:55;31.27;;;19.90;;
56481;SDS011;42384;45.186;19.958;2024-01-30T01:42:21;31.15;;;18.85;;
56481;SDS011;42384;45.186;19.958;2024-01-30T01:44:48;31.27;;;18.25;;
56481;SDS011;42384;45.186;19.958;2024-01-30T01:47:14;31.25;;;18.58;;
56481;SDS011;42384;45.186;19.958;2024-01-30T01:49:41;31.13;;;17.95;;
56481;SDS011;42384;45.186;19.958;2024-01-30T01:52:07;36.25;;;20.08;;
56481;SDS011;42384;45.186;19.958;2024-01-30T01:54:34;28.85;;;18.02;;
56481;SDS011;42384;45.186;19.958;2024-01-30T01:57:01;35.40;;;20.08;;
56481;SDS011;42384;45.186;19.958;2024-01-30T01:59:28;37.03;;;19.07;;
56481;SDS011;42384;45.186;19.958;2024-01-30T02:01:54;32.78;;;19.98;;
56481;SDS011;42384;45.186;19.958;2024-01-30T02:06:47;35.35;;;21.13;;
56481;SDS011;42384;45.186;19.958;2024-01-30T02:09:14;34.10;;;20.95;;
56481;SDS011;42384;45.186;19.958;2024-01-30T02:11:40;41.60;;;23.40;;
56481;SDS011;42384;45.186;19.958;2024-01-30T02:14:06;37.88;;;23.35;;
56481;SDS011;42384;45.186;19.958;2024-01-30T02:16:33;37.47;;;22.52;;
56481;SDS011;42384;45.186;19.958;2024-01-30T02:18:59;38.30;;;23.45;;
56481;SDS011;42384;45.186;19.958;2024-01-30T02:21:25;41.25;;;23.15;;
56481;SDS011;42384;45.186;19.958;2024-01-30T02:23:51;46.33;;;23.88;;
56481;SDS011;42384;45.186;19.958;2024-01-30T02:26:18;39.72;;;23.75;;
56481;SDS011;42384;45.186;19.958;2024-01-30T02:28:45;42.28;;;26.58;;
56481;SDS011;42384;45.186;19.958;2024-01-30T02:31:11;44.38;;;25.48;;
56481;SDS011;42384;45.186;19.958;2024-01-30T02:33:37;43.05;;;24.48;;
56481;SDS011;42384;45.186;19.958;2024-01-30T02:36:04;46.97;;;25.10;;
56481;SDS011;42384;45.186;19.958;2024-01-30T02:38:30;45.85;;;24.83;;
56481;SDS011;42384;45.186;19.958;2024-01-30T02:40:56;43.53;;;23.83;;
56481;SDS011;42384;45.186;19.958;2024-01-30T02:43:22;41.97;;;22.95;;
56481;SDS011;42384;45.186;19.958;2024-01-30T02:45:49;43.22;;;22.42;;
56481;SDS011;42384;45.186;19.958;2024-01-30T02:48:15;44.30;;;22.48;;
56481;SDS011;42384;45.186;19.958;2024-01-30T02:50:42;39.45;;;21.73;;
56481;SDS011;42384;45.186;19.958;2024-01-30T02:53:08;37.67;;;22.63;;
56481;SDS011;42384;45.186;19.958;2024-01-30T02:55:34;39.40;;;23.33;;
56481;SDS011;42384;45.186;19.958;2024-01-30T02:58:00;42.88;;;24.60;;
56481;SDS011;42384;45.186;19.958;2024-01-30T03:00:27;43.47;;;23.17;;
56481;SDS011;42384;45.186;19.958;2024-01-30T03:02:53;38.95;;;24.60;;
56481;SDS011;42384;45.186;19.958;2024-01-30T03:05:20;42.40;;;25.13;;
56481;SDS011;42384;45.186;19.958;2024-01-30T03:07:46;42.30;;;23.55;;
56481;SDS011;42384;45.186;19.958;2024-01-30T03:10:12;44.17;;;25.83;;
56481;SDS011;42384;45.186;19.958;2024-01-30T03:12:38;42.17;;;24.27;;
56481;SDS011;42384;45.186;19.958;2024-01-30T03:15:05;43.92;;;25.40;;
56481;SDS011;42384;45.186;19.958;2024-01-30T03:17:31;44.77;;;23.87;;
56481;SDS011;42384;45.186;19.958;2024-01-30T03:19:57;42.65;;;24.48;;
56481;SDS011;42384;45.186;19.958;2024-01-30T03:22:24;40.37;;;21.93;;
56481;SDS011;42384;45.186;19.958;2024-01-30T03:24:50;38.20;;;22.23;;
56481;SDS011;42384;45.186;19.958;2024-01-30T03:27:16;41.97;;;23.63;;
56481;SDS011;42384;45.186;19.958;2024-01-30T03:29:43;44.15;;;24.48;;
56481;SDS011;42384;45.186;19.958;2024-01-30T03:32:09;38.83;;;22.33;;
56481;SDS011;42384;45.186;19.958;2024-01-30T03:34:35;43.33;;;23.05;;
56481;SDS011;42384;45.186;19.958;2024-01-30T03:37:01;44.25;;;22.67;;
56481;SDS011;42384;45.186;19.958;2024-01-30T03:39:28;45.28;;;22.65;;
56481;SDS011;42384;45.186;19.958;2024-01-30T03:41:54;35.97;;;21.35;;
56481;SDS011;42384;45.186;19.958;2024-01-30T03:44:21;40.08;;;21.25;;
56481;SDS011;42384;45.186;19.958;2024-01-30T03:46:47;35.90;;;20.25;;
56481;SDS011;42384;45.186;19.958;2024-01-30T03:49:14;34.67;;;20.33;;
56481;SDS011;42384;45.186;19.958;2024-01-30T03:51:40;41.90;;;20.37;;
56481;SDS011;42384;45.186;19.958;2024-01-30T03:54:07;35.30;;;20.80;;
56481;SDS011;42384;45.186;19.958;2024-01-30T03:56:33;39.90;;;21.53;;
56481;SDS011;42384;45.186;19.958;2024-01-30T03:58:59;38.58;;;21.60;;
56481;SDS011;42384;45.186;19.958;2024-01-30T04:01:28;42.60;;;22.63;;
56481;SDS011;42384;45.186;19.958;2024-01-30T04:03:54;49.00;;;25.90;;
56481;SDS011;42384;45.186;19.958;2024-01-30T04:06:20;43.80;;;23.75;;
56481;SDS011;42384;45.186;19.958;2024-01-30T04:08:47;44.73;;;24.30;;
56481;SDS011;42384;45.186;19.958;2024-01-30T04:11:13;43.90;;;23.67;;
56481;SDS011;42384;45.186;19.958;2024-01-30T04:13:39;48.75;;;25.38;;
56481;SDS011;42384;45.186;19.958;2024-01-30T04:16:08;48.15;;;25.45;;
56481;SDS011;42384;45.186;19.958;2024-01-30T04:18:34;48.42;;;27.85;;
56481;SDS011;42384;45.186;19.958;2024-01-30T04:21:00;59.05;;;29.55;;
56481;SDS011;42384;45.186;19.958;2024-01-30T04:23:27;54.40;;;30.05;;
56481;SDS011;42384;45.186;19.958;2024-01-30T04:25:53;54.90;;;29.83;;
56481;SDS011;42384;45.186;19.958;2024-01-30T04:28:19;54.53;;;30.05;;
56481;SDS011;42384;45.186;19.958;2024-01-30T04:30:46;52.85;;;27.55;;
56481;SDS011;42384;45.186;19.958;2024-01-30T04:33:12;55.97;;;28.77;;
56481;SDS011;42384;45.186;19.958;2024-01-30T04:35:38;58.73;;;31.97;;
56481;SDS011;42384;45.186;19.958;2024-01-30T04:38:05;56.47;;;31.48;;
56481;SDS011;42384;45.186;19.958;2024-01-30T04:40:31;56.13;;;31.77;;
56481;SDS011;42384;45.186;19.958;2024-01-30T04:42:57;61.57;;;32.70;;
56481;SDS011;42384;45.186;19.958;2024-01-30T04:45:24;62.20;;;33.83;;
56481;SDS011;42384;45.186;19.958;2024-01-30T04:47:50;59.97;;;32.60;;
56481;SDS011;42384;45.186;19.958;2024-01-30T04:50:17;58.00;;;32.92;;
56481;SDS011;42384;45.186;19.958;2024-01-30T04:52:44;57.25;;;32.47;;
56481;SDS011;42384;45.186;19.958;2024-01-30T04:55:10;62.53;;;33.17;;
56481;SDS011;42384;45.186;19.958;2024-01-30T04:57:36;64.57;;;34.57;;
56481;SDS011;42384;45.186;19.958;2024-01-30T05:00:03;57.60;;;32.90;;
56481;SDS011;42384;45.186;19.958;2024-01-30T05:02:30;59.03;;;31.95;;
56481;SDS011;42384;45.186;19.958;2024-01-30T05:04:57;63.03;;;33.85;;
56481;SDS011;42384;45.186;19.958;2024-01-30T05:07:24;61.20;;;32.92;;
56481;SDS011;42384;45.186;19.958;2024-01-30T05:09:50;59.97;;;31.20;;
56481;SDS011;42384;45.186;19.958;2024-01-30T05:12:17;62.58;;;33.22;;
56481;SDS011;42384;45.186;19.958;2024-01-30T05:14:43;64.73;;;32.00;;
56481;SDS011;42384;45.186;19.958;2024-01-30T05:17:10;66.15;;;31.80;;
56481;SDS011;42384;45.186;19.958;2024-01-30T05:19:38;59.45;;;31.52;;
56481;SDS011;42384;45.186;19.958;2024-01-30T05:22:04;65.07;;;32.92;;
56481;SDS011;42384;45.186;19.958;2024-01-30T05:24:30;62.60;;;33.80;;
56481;SDS011;42384;45.186;19.958;2024-01-30T05:26:57;64.68;;;35.03;;
56481;SDS011;42384;45.186;19.958;2024-01-30T05:29:24;60.03;;;34.05;;
56481;SDS011;42384;45.186;19.958;2024-01-30T05:31:50;64.60;;;34.87;;
56481;SDS011;42384;45.186;19.958;2024-01-30T05:34:16;66.60;;;34.95;;
56481;SDS011;42384;45.186;19.958;2024-01-30T05:36:43;60.58;;;33.22;;
56481;SDS011;42384;45.186;19.958;2024-01-30T05:39:09;60.53;;;32.58;;
56481;SDS011;42384;45.186;19.958;2024-01-30T05:41:36;52.72;;;31.25;;
56481;SDS011;42384;45.186;19.958;2024-01-30T05:44:02;60.17;;;32.57;;
56481;SDS011;42384;45.186;19.958;2024-01-30T05:46:29;59.23;;;32.63;;
56481;SDS011;42384;45.186;19.958;2024-01-30T05:48:55;58.13;;;32.05;;
56481;SDS011;42384;45.186;19.958;2024-01-30T05:51:21;59.10;;;33.63;;
56481;SDS011;42384;45.186;19.958;2024-01-30T05:53:47;60.35;;;32.20;;
56481;SDS011;42384;45.186;19.958;2024-01-30T05:56:14;61.17;;;33.10;;
56481;SDS011;42384;45.186;19.958;2024-01-30T05:58:40;59.17;;;34.90;;
56481;SDS011;42384;45.186;19.958;2024-01-30T06:01:08;62.58;;;32.58;;
56481;SDS011;42384;45.186;19.958;2024-01-30T06:03:35;65.33;;;34.47;;
56481;SDS011;42384;45.186;19.958;2024-01-30T06:06:01;74.90;;;37.37;;
56481;SDS011;42384;45.186;19.958;2024-01-30T06:08:27;55.33;;;32.45;;
56481;SDS011;42384;45.186;19.958;2024-01-30T06:10:54;64.35;;;34.13;;
56481;SDS011;42384;45.186;19.958;2024-01-30T06:13:20;59.72;;;33.92;;
56481;SDS011;42384;45.186;19.958;2024-01-30T06:15:47;61.60;;;35.33;;
56481;SDS011;42384;45.186;19.958;2024-01-30T06:18:13;67.13;;;33.60;;
56481;SDS011;42384;45.186;19.958;2024-01-30T06:20:39;63.53;;;31.90;;
56481;SDS011;42384;45.186;19.958;2024-01-30T06:23:06;60.47;;;34.83;;
56481;SDS011;42384;45.186;19.958;2024-01-30T06:25:32;65.18;;;33.85;;
56481;SDS011;42384;45.186;19.958;2024-01-30T06:27:58;63.67;;;33.70;;
56481;SDS011;42384;45.186;19.958;2024-01-30T06:30:25;66.47;;;34.37;;
56481;SDS011;42384;45.186;19.958;2024-01-30T06:32:51;64.93;;;34.80;;
56481;SDS011;42384;45.186;19.958;2024-01-30T06:35:18;65.20;;;33.20;;
56481;SDS011;42384;45.186;19.958;2024-01-30T06:37:44;70.15;;;34.83;;
56481;SDS011;42384;45.186;19.958;2024-01-30T06:40:10;64.35;;;34.00;;
56481;SDS011;42384;45.186;19.958;2024-01-30T06:42:37;67.75;;;35.33;;
56481;SDS011;42384;45.186;19.958;2024-01-30T06:45:03;74.87;;;39.07;;
56481;SDS011;42384;45.186;19.958;2024-01-30T06:47:30;77.45;;;39.47;;
56481;SDS011;42384;45.186;19.958;2024-01-30T06:49:56;73.97;;;38.88;;
56481;SDS011;42384;45.186;19.958;2024-01-30T06:52:22;82.28;;;42.70;;
56481;SDS011;42384;45.186;19.958;2024-01-30T06:54:49;94.28;;;49.83;;
56481;SDS011;42384;45.186;19.958;2024-01-30T06:57:15;81.03;;;43.22;;
56481;SDS011;42384;45.186;19.958;2024-01-30T06:59:41;72.30;;;41.15;;
56481;SDS011;42384;45.186;19.958;2024-01-30T07:02:12;76.95;;;41.95;;
56481;SDS011;42384;45.186;19.958;2024-01-30T07:04:38;78.03;;;42.22;;
56481;SDS011;42384;45.186;19.958;2024-01-30T07:07:05;87.75;;;45.13;;
56481;SDS011;42384;45.186;19.958;2024-01-30T07:09:36;82.95;;;46.50;;
56481;SDS011;42384;45.186;19.958;2024-01-30T07:12:04;82.38;;;45.60;;
56481;SDS011;42384;45.186;19.958;2024-01-30T07:14:31;80.72;;;45.50;;
56481;SDS011;42384;45.186;19.958;2024-01-30T07:16:57;87.60;;;48.97;;
56481;SDS011;42384;45.186;19.958;2024-01-30T07:19:24;88.27;;;46.90;;
56481;SDS011;42384;45.186;19.958;2024-01-30T07:21:50;74.25;;;38.83;;
56481;SDS011;42384;45.186;19.958;2024-01-30T07:24:16;70.83;;;41.80;;
56481;SDS011;42384;45.186;19.958;2024-01-30T07:26:43;67.65;;;39.55;;
56481;SDS011;42384;45.186;19.958;2024-01-30T07:29:09;71.40;;;38.57;;
56481;SDS011;42384;45.186;19.958;2024-01-30T07:31:35;68.43;;;39.83;;
56481;SDS011;42384;45.186;19.958;2024-01-30T07:34:02;75.72;;;39.15;;
56481;SDS011;42384;45.186;19.958;2024-01-30T07:36:28;60.45;;;35.97;;
56481;SDS011;42384;45.186;19.958;2024-01-30T07:38:54;65.45;;;37.17;;
56481;SDS011;42384;45.186;19.958;2024-01-30T07:41:21;66.80;;;36.78;;
56481;SDS011;42384;45.186;19.958;2024-01-30T07:43:48;66.55;;;36.35;;
56481;SDS011;42384;45.186;19.958;2024-01-30T07:46:14;61.92;;;35.78;;
56481;SDS011;42384;45.186;19.958;2024-01-30T07:48:40;61.00;;;38.33;;
56481;SDS011;42384;45.186;19.958;2024-01-30T07:51:07;67.87;;;39.47;;
56481;SDS011;42384;45.186;19.958;2024-01-30T07:53:33;63.60;;;38.03;;
56481;SDS011;42384;45.186;19.958;2024-01-30T07:55:59;71.88;;;39.72;;
56481;SDS011;42384;45.186;19.958;2024-01-30T07:58:25;67.30;;;37.47;;
56481;SDS011;42384;45.186;19.958;2024-01-30T08:00:55;67.60;;;39.00;;
56481;SDS011;42384;45.186;19.958;2024-01-30T08:03:23;69.40;;;39.05;;
56481;SDS011;42384;45.186;19.958;2024-01-30T08:05:49;71.22;;;39.92;;
56481;SDS011;42384;45.186;19.958;2024-01-30T08:08:16;64.43;;;39.30;;
56481;SDS011;42384;45.186;19.958;2024-01-30T08:10:42;69.68;;;40.22;;
56481;SDS011;42384;45.186;19.958;2024-01-30T08:13:08;69.57;;;40.95;;
56481;SDS011;42384;45.186;19.958;2024-01-30T08:15:35;67.47;;;39.28;;
56481;SDS011;42384;45.186;19.958;2024-01-30T08:18:01;57.42;;;32.83;;
56481;SDS011;42384;45.186;19.958;2024-01-30T08:20:27;57.58;;;31.58;;
56481;SDS011;42384;45.186;19.958;2024-01-30T08:22:53;51.60;;;31.13;;
56481;SDS011;42384;45.186;19.958;2024-01-30T08:25:20;52.90;;;31.45;;
56481;SDS011;42384;45.186;19.958;2024-01-30T08:27:47;45.85;;;26.90;;
56481;SDS011;42384;45.186;19.958;2024-01-30T08:30:13;52.03;;;28.70;;
56481;SDS011;42384;45.186;19.958;2024-01-30T08:32:40;53.45;;;32.88;;
56481;SDS011;42384;45.186;19.958;2024-01-30T08:35:06;49.17;;;30.38;;
56481;SDS011;42384;45.186;19.958;2024-01-30T08:37:34;53.10;;;33.08;;
56481;SDS011;42384;45.186;19.958;2024-01-30T08:40:00;56.40;;;31.25;;
56481;SDS011;42384;45.186;19.958;2024-01-30T08:42:28;51.25;;;31.02;;
56481;SDS011;42384;45.186;19.958;2024-01-30T08:44:55;48.20;;;29.08;;
56481;SDS011;42384;45.186;19.958;2024-01-30T08:47:21;51.25;;;28.80;;
56481;SDS011;42384;45.186;19.958;2024-01-30T08:49:47;44.70;;;27.50;;
56481;SDS011;42384;45.186;19.958;2024-01-30T08:52:14;50.63;;;27.03;;
56481;SDS011;42384;45.186;19.958;2024-01-30T08:54:40;40.72;;;24.75;;
56481;SDS011;42384;45.186;19.958;2024-01-30T08:57:06;40.97;;;25.67;;
56481;SDS011;42384;45.186;19.958;2024-01-30T08:59:32;41.58;;;25.48;;
56481;SDS011;42384;45.186;19.958;2024-01-30T09:01:59;46.33;;;26.35;;
56481;SDS011;42384;45.186;19.958;2024-01-30T09:04:25;41.93;;;24.57;;
56481;SDS011;42384;45.186;19.958;2024-01-30T09:06:51;39.58;;;25.60;;
56481;SDS011;42384;45.186;19.958;2024-01-30T09:09:17;43.63;;;26.53;;
56481;SDS011;42384;45.186;19.958;2024-01-30T09:11:44;39.85;;;25.10;;
56481;SDS011;42384;45.186;19.958;2024-01-30T09:14:10;36.90;;;24.30;;
56481;SDS011;42384;45.186;19.958;2024-01-30T09:16:37;44.67;;;27.23;;
56481;SDS011;42384;45.186;19.958;2024-01-30T09:19:03;41.45;;;23.92;;
56481;SDS011;42384;45.186;19.958;2024-01-30T09:21:30;36.20;;;21.52;;
56481;SDS011;42384;45.186;19.958;2024-01-30T09:24:01;31.60;;;21.27;;
56481;SDS011;42384;45.186;19.958;2024-01-30T09:26:29;31.92;;;19.88;;
56481;SDS011;42384;45.186;19.958;2024-01-30T09:28:55;37.33;;;20.73;;
56481;SDS011;42384;45.186;19.958;2024-01-30T09:31:21;31.95;;;18.50;;
56481;SDS011;42384;45.186;19.958;2024-01-30T09:33:48;34.22;;;21.23;;
56481;SDS011;42384;45.186;19.958;2024-01-30T09:36:16;28.77;;;17.90;;
56481;SDS011;42384;45.186;19.958;2024-01-30T09:38:45;29.65;;;18.70;;
56481;SDS011;42384;45.186;19.958;2024-01-30T09:41:11;28.50;;;17.27;;
56481;SDS011;42384;45.186;19.958;2024-01-30T09:43:38;27.67;;;17.98;;
56481;SDS011;42384;45.186;19.958;2024-01-30T09:46:05;29.33;;;18.67;;
56481;SDS011;42384;45.186;19.958;2024-01-30T09:48:32;28.03;;;18.50;;
56481;SDS011;42384;45.186;19.958;2024-01-30T09:50:58;29.55;;;18.88;;
56481;SDS011;42384;45.186;19.958;2024-01-30T09:53:25;36.97;;;20.48;;
56481;SDS011;42384;45.186;19.958;2024-01-30T09:55:51;29.77;;;19.38;;
56481;SDS011;42384;45.186;19.958;2024-01-30T09:58:18;32.33;;;21.52;;
56481;SDS011;42384;45.186;19.958;2024-01-30T10:00:45;32.55;;;19.83;;
56481;SDS011;42384;45.186;19.958;2024-01-30T10:03:11;28.60;;;17.83;;
56481;SDS011;42384;45.186;19.958;2024-01-30T10:05:39;28.05;;;19.23;;
56481;SDS011;42384;45.186;19.958;2024-01-30T10:08:06;27.90;;;17.80;;
56481;SDS011;42384;45.186;19.958;2024-01-30T10:10:33;25.90;;;16.98;;
56481;SDS011;42384;45.186;19.958;2024-01-30T10:13:00;29.02;;;19.23;;
56481;SDS011;42384;45.186;19.958;2024-01-30T10:15:27;26.37;;;16.20;;
56481;SDS011;42384;45.186;19.958;2024-01-30T10:20:20;30.55;;;18.80;;
56481;SDS011;42384;45.186;19.958;2024-01-30T10:22:47;114.72;;;57.40;;
56481;SDS011;42384;45.186;19.958;2024-01-30T10:25:14;36.38;;;22.73;;
56481;SDS011;42384;45.186;19.958;2024-01-30T10:27:41;42.22;;;24.00;;
56481;SDS011;42384;45.186;19.958;2024-01-30T10:30:07;52.72;;;30.92;;
56481;SDS011;42384;45.186;19.958;2024-01-30T10:32:34;30.63;;;19.92;;
56481;SDS011;42384;45.186;19.958;2024-01-30T10:35:01;34.42;;;21.45;;
56481;SDS011;42384;45.186;19.958;2024-01-30T10:37:28;29.98;;;18.63;;
56481;SDS011;42384;45.186;19.958;2024-01-30T10:39:57;25.75;;;17.38;;
56481;SDS011;42384;45.186;19.958;2024-01-30T10:42:27;29.95;;;19.48;;
56481;SDS011;42384;45.186;19.958;2024-01-30T10:45:06;27.80;;;18.30;;
56481;SDS011;42384;45.186;19.958;2024-01-30T10:47:44;27.48;;;18.45;;
56481;SDS011;42384;45.186;19.958;2024-01-30T10:50:12;32.03;;;18.80;;
56481;SDS011;42384;45.186;19.958;2024-01-30T10:55:07;32.40;;;18.52;;
56481;SDS011;42384;45.186;19.958;2024-01-30T10:57:36;24.88;;;17.13;;
56481;SDS011;42384;45.186;19.958;2024-01-30T11:00:07;25.80;;;17.88;;
56481;SDS011;42384;45.186;19.958;2024-01-30T11:02:40;27.73;;;18.55;;
56481;SDS011;42384;45.186;19.958;2024-01-30T11:05:07;29.23;;;18.27;;
56481;SDS011;42384;45.186;19.958;2024-01-30T11:07:33;28.98;;;17.55;;
56481;SDS011;42384;45.186;19.958;2024-01-30T11:12:26;29.45;;;17.73;;
56481;SDS011;42384;45.186;19.958;2024-01-30T11:15:02;24.13;;;15.48;;
56481;SDS011;42384;45.186;19.958;2024-01-30T11:20:20;25.73;;;13.40;;
56481;SDS011;42384;45.186;19.958;2024-01-30T11:22:47;18.95;;;11.75;;
56481;SDS011;42384;45.186;19.958;2024-01-30T11:25:14;20.45;;;11.57;;
56481;SDS011;42384;45.186;19.958;2024-01-30T11:30:07;24.08;;;13.93;;
56481;SDS011;42384;45.186;19.958;2024-01-30T11:32:33;19.20;;;9.90;;
56481;SDS011;42384;45.186;19.958;2024-01-30T11:34:59;19.90;;;10.93;;
56481;SDS011;42384;45.186;19.958;2024-01-30T11:37:25;16.10;;;10.53;;
56481;SDS011;42384;45.186;19.958;2024-01-30T11:39:53;17.25;;;10.18;;
56481;SDS011;42384;45.186;19.958;2024-01-30T11:44:48;13.50;;;7.80;;
56481;SDS011;42384;45.186;19.958;2024-01-30T11:47:14;14.52;;;7.93;;
56481;SDS011;42384;45.186;19.958;2024-01-30T11:49:42;21.58;;;11.30;;
56481;SDS011;42384;45.186;19.958;2024-01-30T11:52:09;18.75;;;9.32;;
56481;SDS011;42384;45.186;19.958;2024-01-30T11:54:35;17.00;;;9.70;;
56481;SDS011;42384;45.186;19.958;2024-01-30T11:57:02;30.77;;;18.23;;
56481;SDS011;42384;45.186;19.958;2024-01-30T11:59:29;12.70;;;8.63;;
56481;SDS011;42384;45.186;19.958;2024-01-30T12:01:55;21.38;;;11.63;;
56481;SDS011;42384;45.186;19.958;2024-01-30T12:04:21;12.55;;;7.95;;
56481;SDS011;42384;45.186;19.958;2024-01-30T12:06:52;10.70;;;6.47;;
56481;SDS011;42384;45.186;19.958;2024-01-30T12:09:18;11.43;;;7.38;;
56481;SDS011;42384;45.186;19.958;2024-01-30T12:11:44;12.52;;;7.47;;
56481;SDS011;42384;45.186;19.958;2024-01-30T12:14:11;19.70;;;13.52;;
56481;SDS011;42384;45.186;19.958;2024-01-30T12:16:37;13.52;;;7.43;;
56481;SDS011;42384;45.186;19.958;2024-01-30T12:19:03;12.55;;;7.30;;
56481;SDS011;42384;45.186;19.958;2024-01-30T12:21:30;11.83;;;7.23;;
56481;SDS011;42384;45.186;19.958;2024-01-30T12:23:56;12.38;;;7.30;;
56481;SDS011;42384;45.186;19.958;2024-01-30T12:26:23;12.38;;;8.30;;
56481;SDS011;42384;45.186;19.958;2024-01-30T12:28:55;9.90;;;6.07;;
56481;SDS011;42384;45.186;19.958;2024-01-30T12:31:27;12.45;;;6.43;;
56481;SDS011;42384;45.186;19.958;2024-01-30T12:33:53;9.68;;;5.82;;
56481;SDS011;42384;45.186;19.958;2024-01-30T12:36:21;10.00;;;5.88;;
56481;SDS011;42384;45.186;19.958;2024-01-30T12:38:47;9.18;;;4.93;;
56481;SDS011;42384;45.186;19.958;2024-01-30T12:41:13;11.47;;;6.17;;
56481;SDS011;42384;45.186;19.958;2024-01-30T12:43:40;13.30;;;6.70;;
56481;SDS011;42384;45.186;19.958;2024-01-30T12:46:06;11.02;;;6.53;;
56481;SDS011;42384;45.186;19.958;2024-01-30T12:48:33;9.90;;;6.45;;
56481;SDS011;42384;45.186;19.958;2024-01-30T12:50:59;12.30;;;6.80;;
56481;SDS011;42384;45.186;19.958;2024-01-30T12:53:25;13.48;;;7.82;;
56481;SDS011;42384;45.186;19.958;2024-01-30T12:55:51;13.48;;;7.90;;
56481;SDS011;42384;45.186;19.958;2024-01-30T12:58:19;12.02;;;7.55;;
56481;SDS011;42384;45.186;19.958;2024-01-30T13:00:45;12.52;;;7.18;;
56481;SDS011;42384;45.186;19.958;2024-01-30T13:03:12;13.40;;;7.20;;
56481;SDS011;42384;45.186;19.958;2024-01-30T13:05:38;11.30;;;6.23;;
56481;SDS011;42384;45.186;19.958;2024-01-30T13:08:05;15.13;;;6.38;;
56481;SDS011;42384;45.186;19.958;2024-01-30T13:10:31;9.13;;;5.67;;
56481;SDS011;42384;45.186;19.958;2024-01-30T13:12:57;14.80;;;6.40;;
56481;SDS011;42384;45.186;19.958;2024-01-30T13:15:23;10.48;;;6.18;;
56481;SDS011;42384;45.186;19.958;2024-01-30T13:17:49;9.65;;;5.53;;
56481;SDS011;42384;45.186;19.958;2024-01-30T13:20:17;12.60;;;6.75;;
56481;SDS011;42384;45.186;19.958;2024-01-30T13:22:47;13.18;;;6.93;;
56481;SDS011;42384;45.186;19.958;2024-01-30T13:25:14;9.82;;;6.97;;
56481;SDS011;42384;45.186;19.958;2024-01-30T13:27:40;11.30;;;6.80;;
56481;SDS011;42384;45.186;19.958;2024-01-30T13:30:07;10.63;;;6.13;;
56481;SDS011;42384;45.186;19.958;2024-01-30T13:32:36;10.07;;;6.10;;
56481;SDS011;42384;45.186;19.958;2024-01-30T13:35:03;13.33;;;7.17;;
56481;SDS011;42384;45.186;19.958;2024-01-30T13:37:29;13.55;;;6.47;;
56481;SDS011;42384;45.186;19.958;2024-01-30T13:39:55;10.53;;;6.47;;
56481;SDS011;42384;45.186;19.958;2024-01-30T13:42:21;11.73;;;6.40;;
56481;SDS011;42384;45.186;19.958;2024-01-30T13:44:48;11.38;;;6.18;;
56481;SDS011;42384;45.186;19.958;2024-01-30T13:47:15;13.10;;;7.13;;
56481;SDS011;42384;45.186;19.958;2024-01-30T13:49:41;17.30;;;7.78;;
56481;SDS011;42384;45.186;19.958;2024-01-30T13:52:07;13.65;;;7.30;;
56481;SDS011;42384;45.186;19.958;2024-01-30T13:54:33;12.88;;;8.52;;
56481;SDS011;42384;45.186;19.958;2024-01-30T13:57:00;16.48;;;8.48;;
56481;SDS011;42384;45.186;19.958;2024-01-30T13:59:26;13.40;;;8.00;;
56481;SDS011;42384;45.186;19.958;2024-01-30T14:01:52;12.95;;;7.43;;
56481;SDS011;42384;45.186;19.958;2024-01-30T14:04:18;19.40;;;9.15;;
56481;SDS011;42384;45.186;19.958;2024-01-30T14:06:44;12.35;;;7.88;;
56481;SDS011;42384;45.186;19.958;2024-01-30T14:09:11;16.40;;;9.87;;
56481;SDS011;42384;45.186;19.958;2024-01-30T14:11:39;15.75;;;9.75;;
56481;SDS011;42384;45.186;19.958;2024-01-30T14:14:06;15.70;;;9.30;;
56481;SDS011;42384;45.186;19.958;2024-01-30T14:16:33;15.50;;;10.17;;
56481;SDS011;42384;45.186;19.958;2024-01-30T14:18:59;20.60;;;11.77;;
56481;SDS011;42384;45.186;19.958;2024-01-30T14:21:25;23.13;;;12.82;;
56481;SDS011;42384;45.186;19.958;2024-01-30T14:23:51;26.63;;;16.13;;
56481;SDS011;42384;45.186;19.958;2024-01-30T14:26:17;18.88;;;11.98;;
56481;SDS011;42384;45.186;19.958;2024-01-30T14:28:43;19.27;;;12.73;;